createdAt,value
2022-10-30T00:00:41.421Z,4.90
2022-10-30T00:03:13.193Z,4.28
2022-10-30T00:05:44.153Z,4.07
2022-10-30T00:08:13.143Z,4.97
2022-10-30T00:10:40.355Z,5.13
2022-10-30T00:13:07.931Z,4.68
2022-10-30T00:15:34.871Z,4.30
2022-10-30T00:18:02.600Z,4.82
2022-10-30T00:20:29.590Z,5.38
2022-10-30T00:22:56.655Z,4.50
2022-10-30T00:25:23.972Z,5.18
2022-10-30T00:27:50.926Z,4.70
2022-10-30T00:30:18.815Z,4.18
2022-10-30T00:32:45.556Z,4.00
2022-10-30T00:35:12.631Z,4.53
2022-10-30T00:37:39.683Z,4.15
2022-10-30T00:40:07.464Z,5.13
2022-10-30T00:42:34.488Z,5.38
2022-10-30T00:45:01.193Z,5.25
2022-10-30T00:47:37.541Z,5.40
2022-10-30T00:50:16.206Z,5.07
2022-10-30T00:53:07.094Z,5.33
2022-10-30T00:55:48.546Z,4.65
2022-10-30T00:58:17.761Z,5.55
2022-10-30T01:00:48.896Z,4.25
2022-10-30T01:03:16.512Z,5.28
2022-10-30T01:05:45.709Z,3.92
2022-10-30T01:08:12.572Z,5.43
2022-10-30T01:10:39.734Z,5.03
2022-10-30T01:13:06.944Z,5.20
2022-10-30T01:15:38.004Z,4.78
2022-10-30T01:18:25.174Z,4.60
2022-10-30T01:21:27.498Z,5.35
2022-10-30T01:24:19.670Z,4.93
2022-10-30T01:27:07.843Z,5.18
2022-10-30T01:29:48.537Z,5.78
2022-10-30T01:32:18.642Z,5.63
2022-10-30T01:35:17.881Z,4.68
2022-10-30T01:37:54.182Z,4.57
2022-10-30T01:40:21.408Z,4.55
2022-10-30T01:42:56.658Z,5.55
2022-10-30T01:46:17.080Z,4.90
2022-10-30T01:49:11.482Z,5.75
2022-10-30T01:51:50.202Z,5.35
2022-10-30T01:54:35.236Z,4.93
2022-10-30T01:57:36.760Z,5.07
2022-10-30T02:00:07.764Z,4.68
2022-10-30T02:02:34.844Z,5.43
2022-10-30T02:05:06.340Z,5.28
2022-10-30T02:07:33.770Z,5.95
2022-10-30T02:10:01.814Z,5.03
2022-10-30T02:12:28.949Z,5.30
2022-10-30T02:14:59.995Z,4.70
2022-10-30T02:17:28.209Z,5.85
2022-10-30T02:19:55.117Z,5.63
2022-10-30T02:22:22.278Z,5.40
2022-10-30T02:24:49.078Z,4.80
2022-10-30T02:27:15.737Z,4.78
2022-10-30T02:29:42.802Z,5.28
2022-10-30T02:32:09.472Z,5.68
2022-10-30T02:34:36.882Z,6.13
2022-10-30T02:37:03.959Z,5.80
2022-10-30T02:39:31.825Z,5.32
2022-10-30T02:42:00.291Z,5.05
2022-10-30T02:44:27.102Z,6.47
2022-10-30T02:46:53.832Z,5.40
2022-10-30T02:49:21.655Z,5.50
2022-10-30T02:51:48.279Z,5.30
2022-10-30T02:54:15.326Z,5.55
2022-10-30T02:56:42.472Z,5.80
2022-10-30T02:59:09.519Z,5.38
2022-10-30T03:01:36.527Z,7.13
2022-10-30T03:04:03.625Z,5.38
2022-10-30T03:06:30.590Z,6.40
2022-10-30T03:08:57.592Z,4.97
2022-10-30T03:11:24.272Z,5.90
2022-10-30T03:13:51.476Z,6.10
2022-10-30T03:16:21.226Z,5.07
2022-10-30T03:18:48.648Z,5.72
2022-10-30T03:21:18.825Z,6.65
2022-10-30T03:23:46.335Z,4.93
2022-10-30T03:26:13.575Z,5.72
2022-10-30T03:28:40.387Z,5.50
2022-10-30T03:31:13.065Z,5.65
2022-10-30T03:33:40.556Z,6.05
2022-10-30T03:36:09.254Z,5.35
2022-10-30T03:38:36.500Z,4.72
2022-10-30T03:41:03.684Z,5.10
2022-10-30T03:43:30.668Z,4.88
2022-10-30T03:45:57.818Z,6.22
2022-10-30T03:48:27.345Z,5.80
2022-10-30T03:50:55.376Z,6.47
2022-10-30T03:53:23.943Z,5.13
2022-10-30T03:55:51.067Z,6.13
2022-10-30T03:58:17.858Z,5.07
2022-10-30T04:00:44.445Z,4.60
2022-10-30T04:03:11.753Z,5.28
2022-10-30T04:05:38.952Z,5.10
2022-10-30T04:08:10.961Z,4.93
2022-10-30T04:10:38.045Z,4.57
2022-10-30T04:13:07.316Z,4.38
2022-10-30T04:15:34.261Z,5.72
2022-10-30T04:18:01.606Z,5.55
2022-10-30T04:20:29.651Z,4.75
2022-10-30T04:22:58.120Z,6.70
2022-10-30T04:25:25.787Z,4.50
2022-10-30T04:27:53.153Z,5.05
2022-10-30T04:30:34.054Z,4.95
2022-10-30T04:33:02.928Z,4.55
2022-10-30T04:35:32.791Z,5.80
2022-10-30T04:38:04.846Z,5.15
2022-10-30T04:40:35.002Z,4.80
2022-10-30T04:43:03.091Z,4.88
2022-10-30T04:45:30.122Z,6.28
2022-10-30T04:48:05.886Z,5.30
2022-10-30T04:50:33.886Z,5.95
2022-10-30T04:53:02.715Z,5.50
2022-10-30T04:55:30.071Z,4.97
2022-10-30T04:58:02.897Z,5.28
2022-10-30T05:00:30.631Z,6.00
2022-10-30T05:03:01.579Z,6.15
2022-10-30T05:05:32.027Z,5.18
2022-10-30T05:07:59.651Z,6.20
2022-10-30T05:10:26.996Z,5.68
2022-10-30T05:12:54.388Z,4.95
2022-10-30T05:15:21.850Z,4.95
2022-10-30T05:17:53.592Z,6.70
2022-10-30T05:20:20.742Z,5.43
2022-10-30T05:22:58.097Z,4.60
2022-10-30T05:25:25.674Z,5.68
2022-10-30T05:28:01.848Z,5.47
2022-10-30T05:30:32.300Z,5.32
2022-10-30T05:33:06.635Z,5.68
2022-10-30T05:35:34.653Z,6.10
2022-10-30T05:38:03.464Z,5.35
2022-10-30T05:40:30.415Z,5.40
2022-10-30T05:42:57.501Z,5.93
2022-10-30T05:45:24.559Z,4.93
2022-10-30T05:48:02.909Z,5.25
2022-10-30T05:50:31.732Z,5.85
2022-10-30T05:53:02.027Z,6.15
2022-10-30T05:55:29.160Z,5.13
2022-10-30T05:58:00.934Z,5.70
2022-10-30T06:00:29.853Z,5.40
2022-10-30T06:03:05.412Z,5.03
2022-10-30T06:05:34.985Z,5.97
2022-10-30T06:08:02.848Z,5.53
2022-10-30T06:10:30.250Z,5.65
2022-10-30T06:13:00.057Z,5.88
2022-10-30T06:15:27.979Z,4.90
2022-10-30T06:17:55.284Z,5.25
2022-10-30T06:20:24.588Z,6.35
2022-10-30T06:22:59.522Z,5.32
2022-10-30T06:25:27.437Z,6.30
2022-10-30T06:27:54.380Z,5.32
2022-10-30T06:30:21.663Z,4.97
2022-10-30T06:32:48.880Z,6.50
2022-10-30T06:35:16.469Z,7.32
2022-10-30T06:37:47.774Z,6.45
2022-10-30T06:40:15.531Z,5.45
2022-10-30T06:42:46.570Z,5.68
2022-10-30T06:45:15.039Z,5.65
2022-10-30T06:47:42.567Z,5.63
2022-10-30T06:50:12.268Z,6.00
2022-10-30T06:55:07.161Z,4.78
2022-10-30T06:57:34.118Z,5.43
2022-10-30T07:00:00.814Z,5.25
2022-10-30T07:02:27.969Z,5.65
2022-10-30T07:04:54.821Z,5.53
2022-10-30T07:07:21.820Z,6.47
2022-10-30T07:09:48.489Z,5.45
2022-10-30T07:12:15.874Z,6.68
2022-10-30T07:14:42.558Z,5.10
2022-10-30T07:17:10.029Z,5.38
2022-10-30T07:19:36.621Z,6.07
2022-10-30T07:22:03.419Z,5.72
2022-10-30T07:24:30.377Z,6.68
2022-10-30T07:26:57.389Z,5.45
2022-10-30T07:29:24.030Z,7.55
2022-10-30T07:32:02.298Z,5.82
2022-10-30T07:34:29.776Z,5.30
2022-10-30T07:36:56.700Z,5.70
2022-10-30T07:39:23.780Z,5.63
2022-10-30T07:41:50.822Z,5.20
2022-10-30T07:44:17.933Z,5.35
2022-10-30T07:46:44.843Z,5.55
2022-10-30T07:49:11.937Z,6.75
2022-10-30T07:51:38.988Z,6.45
2022-10-30T07:54:06.032Z,5.80
2022-10-30T07:56:33.046Z,5.75
2022-10-30T07:59:00.142Z,5.68
2022-10-30T08:01:27.215Z,5.95
2022-10-30T08:03:54.184Z,5.82
2022-10-30T08:06:24.685Z,5.93
2022-10-30T08:08:54.041Z,4.25
2022-10-30T08:11:21.140Z,4.72
2022-10-30T08:13:48.125Z,4.82
2022-10-30T08:16:17.189Z,4.68
2022-10-30T08:18:43.995Z,5.35
2022-10-30T08:21:10.961Z,4.63
2022-10-30T08:23:38.014Z,4.88
2022-10-30T08:26:05.443Z,5.38
2022-10-30T08:28:33.024Z,4.78
2022-10-30T08:31:02.447Z,5.35
2022-10-30T08:33:29.724Z,5.47
2022-10-30T08:35:58.590Z,5.70
2022-10-30T08:38:26.939Z,4.80
2022-10-30T08:40:53.956Z,5.32
2022-10-30T08:43:20.969Z,5.72
2022-10-30T08:45:48.097Z,5.38
2022-10-30T08:48:16.584Z,6.40
2022-10-30T08:50:43.610Z,5.60
2022-10-30T08:53:12.227Z,6.68
2022-10-30T08:55:39.283Z,5.88
2022-10-30T08:58:06.071Z,5.53
2022-10-30T09:00:32.960Z,5.05
2022-10-30T09:03:00.163Z,4.60
2022-10-30T09:05:27.454Z,5.65
2022-10-30T09:08:02.173Z,4.88
2022-10-30T09:10:29.806Z,5.68
2022-10-30T09:12:57.948Z,4.85
2022-10-30T09:15:26.344Z,6.50
2022-10-30T09:17:58.701Z,5.82
2022-10-30T09:20:26.303Z,5.15
2022-10-30T09:22:54.482Z,4.90
2022-10-30T09:25:21.731Z,5.43
2022-10-30T09:27:49.888Z,5.15
2022-10-30T09:30:16.618Z,5.78
2022-10-30T09:32:43.685Z,5.07
2022-10-30T09:35:10.684Z,4.97
2022-10-30T09:37:38.653Z,4.72
2022-10-30T09:40:07.474Z,5.55
2022-10-30T09:42:45.631Z,5.00
2022-10-30T09:45:52.220Z,4.50
2022-10-30T09:48:41.571Z,4.82
2022-10-30T09:54:23.527Z,4.78
2022-10-30T09:57:29.062Z,5.05
2022-10-30T10:00:23.207Z,4.97
2022-10-30T10:03:03.324Z,4.95
2022-10-30T10:05:43.118Z,5.03
2022-10-30T10:08:37.675Z,5.03
2022-10-30T10:11:13.433Z,4.05
2022-10-30T10:13:48.376Z,4.43
2022-10-30T10:16:20.569Z,4.13
2022-10-30T10:18:52.450Z,4.93
2022-10-30T10:21:27.897Z,5.57
2022-10-30T10:24:03.464Z,4.18
2022-10-30T10:26:42.214Z,5.35
2022-10-30T10:29:33.832Z,5.13
2022-10-30T10:32:08.140Z,4.65
2022-10-30T10:35:11.185Z,4.85
2022-10-30T10:37:48.775Z,5.10
2022-10-30T10:40:26.328Z,5.55
2022-10-30T10:43:20.754Z,6.03
2022-10-30T10:46:09.804Z,5.20
2022-10-30T10:49:04.811Z,6.13
2022-10-30T10:51:39.075Z,5.55
2022-10-30T10:54:21.749Z,4.20
2022-10-30T10:56:50.976Z,4.25
2022-10-30T10:59:22.754Z,4.32
2022-10-30T11:01:55.823Z,5.63
2022-10-30T11:04:47.776Z,5.07
2022-10-30T11:07:22.867Z,4.75
2022-10-30T11:09:57.479Z,4.68
2022-10-30T11:12:37.268Z,4.38
2022-10-30T11:15:18.521Z,4.30
2022-10-30T11:18:08.079Z,4.50
2022-10-30T11:21:04.652Z,5.78
2022-10-30T11:23:44.961Z,4.53
2022-10-30T11:26:18.237Z,4.88
2022-10-30T11:29:03.947Z,4.32
2022-10-30T11:31:37.797Z,4.55
2022-10-30T11:34:19.862Z,4.78
2022-10-30T11:36:48.944Z,3.97
2022-10-30T11:39:26.091Z,4.60
2022-10-30T11:42:04.894Z,5.55
2022-10-30T11:44:38.266Z,5.05
2022-10-30T11:47:07.220Z,4.97
2022-10-30T11:49:36.787Z,4.72
2022-10-30T11:52:05.112Z,5.18
2022-10-30T11:54:37.594Z,4.82
2022-10-30T11:57:05.044Z,4.88
2022-10-30T11:59:31.771Z,5.05
2022-10-30T12:02:01.720Z,4.53
2022-10-30T12:04:31.924Z,5.00
2022-10-30T12:07:14.163Z,3.88
2022-10-30T12:09:45.957Z,5.53
2022-10-30T12:12:24.118Z,4.78
2022-10-30T12:14:52.511Z,3.95
2022-10-30T12:17:21.694Z,3.47
2022-10-30T12:19:51.259Z,4.55
2022-10-30T12:22:35.162Z,3.42
2022-10-30T12:25:24.027Z,4.10
2022-10-30T12:27:57.992Z,5.47
2022-10-30T12:30:25.968Z,3.83
2022-10-30T12:32:55.010Z,4.53
2022-10-30T12:35:42.988Z,4.35
2022-10-30T12:38:34.334Z,4.15
2022-10-30T12:41:20.083Z,3.95
2022-10-30T12:43:58.590Z,3.65
2022-10-30T12:46:52.019Z,4.85
2022-10-30T12:49:41.288Z,3.65
2022-10-30T12:52:24.071Z,4.80
2022-10-30T12:55:22.107Z,4.28
2022-10-30T12:58:01.872Z,7.18
2022-10-30T13:00:34.445Z,4.35
2022-10-30T13:03:13.514Z,4.95
2022-10-30T13:05:43.784Z,3.97
2022-10-30T13:08:23.100Z,4.53
2022-10-30T13:11:12.251Z,4.22
2022-10-30T13:13:59.355Z,4.32
2022-10-30T13:16:31.019Z,4.95
2022-10-30T13:19:01.021Z,4.28
2022-10-30T13:22:15.131Z,4.32
2022-10-30T13:25:08.126Z,4.05
2022-10-30T13:28:04.893Z,4.95
2022-10-30T13:30:37.775Z,3.85
2022-10-30T13:33:10.632Z,4.07
2022-10-30T13:35:59.453Z,4.53
2022-10-30T13:38:59.735Z,4.97
2022-10-30T13:41:53.752Z,4.85
2022-10-30T13:44:26.524Z,4.82
2022-10-30T13:47:13.331Z,5.97
2022-10-30T13:50:18.469Z,5.75
2022-10-30T13:52:53.496Z,4.90
2022-10-30T13:55:27.397Z,5.80
2022-10-30T13:58:23.204Z,6.47
2022-10-30T14:00:56.808Z,5.85
2022-10-30T14:03:51.499Z,6.18
2022-10-30T14:06:26.383Z,5.80
2022-10-30T14:08:53.294Z,6.10
2022-10-30T14:11:20.303Z,6.25
2022-10-30T14:13:51.936Z,6.13
2022-10-30T14:16:41.770Z,7.20
2022-10-30T14:19:17.160Z,7.10
2022-10-30T14:21:58.242Z,6.72
2022-10-30T14:24:31.012Z,6.43
2022-10-30T14:27:04.096Z,7.85
2022-10-30T14:29:34.228Z,8.48
2022-10-30T14:32:21.404Z,7.38
2022-10-30T14:34:51.475Z,8.30
2022-10-30T14:37:38.467Z,7.63
2022-10-30T14:40:32.022Z,8.35
2022-10-30T14:43:03.664Z,8.02
2022-10-30T14:45:58.458Z,8.20
2022-10-30T14:48:34.296Z,8.13
2022-10-30T14:51:05.738Z,8.60
2022-10-30T14:53:51.479Z,9.55
2022-10-30T14:56:31.861Z,8.70
2022-10-30T14:59:14.976Z,7.65
2022-10-30T15:01:55.138Z,7.20
2022-10-30T15:04:46.863Z,6.28
2022-10-30T15:07:52.576Z,6.03
2022-10-30T15:10:26.199Z,5.22
2022-10-30T15:13:14.665Z,5.15
2022-10-30T15:15:43.073Z,3.90
2022-10-30T15:18:17.444Z,4.28
2022-10-30T15:20:52.069Z,4.47
2022-10-30T15:23:29.406Z,3.88
2022-10-30T15:26:02.540Z,4.10
2022-10-30T15:28:35.488Z,3.88
2022-10-30T15:31:23.806Z,4.22
2022-10-30T15:33:51.611Z,3.88
2022-10-30T15:36:19.536Z,4.07
2022-10-30T15:39:03.016Z,3.72
2022-10-30T15:41:30.597Z,3.05
2022-10-30T15:43:58.974Z,4.10
2022-10-30T15:46:26.577Z,3.65
2022-10-30T15:48:53.711Z,4.32
2022-10-30T15:51:23.124Z,4.00
2022-10-30T15:57:17.777Z,4.22
2022-10-30T15:59:35.116Z,3.45
2022-10-30T16:02:01.933Z,3.88
2022-10-30T16:04:35.769Z,3.20
2022-10-30T16:07:16.431Z,3.53
2022-10-30T16:09:53.774Z,3.55
2022-10-30T16:12:23.820Z,4.60
2022-10-30T16:14:50.676Z,2.60
2022-10-30T16:17:18.898Z,3.05
2022-10-30T16:19:49.888Z,5.68
2022-10-30T16:22:26.154Z,2.65
2022-10-30T16:24:54.590Z,3.28
2022-10-30T16:27:23.607Z,3.08
2022-10-30T16:29:59.113Z,3.17
2022-10-30T16:32:30.825Z,2.40
2022-10-30T16:35:00.152Z,2.97
2022-10-30T16:37:37.679Z,2.80
2022-10-30T16:40:11.053Z,2.88
2022-10-30T16:42:38.231Z,2.80
2022-10-30T16:45:10.848Z,2.38
2022-10-30T16:47:39.572Z,2.42
2022-10-30T16:50:10.075Z,4.80
2022-10-30T16:52:36.826Z,3.25
2022-10-30T16:55:12.812Z,4.65
2022-10-30T16:57:45.415Z,3.17
2022-10-30T17:00:27.011Z,3.40
2022-10-30T17:02:56.311Z,3.30
2022-10-30T17:05:33.746Z,4.22
2022-10-30T17:08:20.631Z,3.05
2022-10-30T17:10:59.680Z,3.15
2022-10-30T17:13:37.995Z,3.80
2022-10-30T17:16:25.715Z,3.63
2022-10-30T17:18:54.206Z,4.35
2022-10-30T17:21:25.078Z,3.40
2022-10-30T17:23:58.651Z,4.13
2022-10-30T17:26:27.673Z,3.50
2022-10-30T17:28:55.022Z,4.20
2022-10-30T17:31:38.259Z,4.57
2022-10-30T17:34:15.533Z,4.03
2022-10-30T17:36:42.442Z,4.05
2022-10-30T17:39:10.273Z,5.50
2022-10-30T17:41:37.338Z,12.90
2022-10-30T17:44:05.316Z,11.75
2022-10-30T17:46:32.088Z,5.18
2022-10-30T17:48:59.450Z,5.90
2022-10-30T17:51:26.830Z,5.82
2022-10-30T17:53:53.564Z,4.88
2022-10-30T17:56:29.981Z,4.97
2022-10-30T17:58:56.665Z,5.72
2022-10-30T18:01:26.192Z,6.10
2022-10-30T18:06:24.113Z,5.85
2022-10-30T18:08:53.230Z,7.25
2022-10-30T18:11:22.576Z,6.35
2022-10-30T18:13:50.541Z,6.07
2022-10-30T18:16:18.867Z,6.28
2022-10-30T18:18:45.675Z,7.03
2022-10-30T18:21:19.171Z,8.23
2022-10-30T18:23:52.238Z,6.30
2022-10-30T18:26:26.004Z,6.10
2022-10-30T18:28:53.659Z,7.00
2022-10-30T18:31:22.585Z,6.13
2022-10-30T18:33:49.640Z,6.68
2022-10-30T18:36:18.873Z,7.07
2022-10-30T18:38:46.081Z,10.15
2022-10-30T18:41:37.523Z,9.25
2022-10-30T18:44:06.467Z,6.78
2022-10-30T18:46:34.408Z,8.02
2022-10-30T18:49:01.318Z,6.63
2022-10-30T18:51:28.982Z,6.53
2022-10-30T18:53:56.918Z,8.30
2022-10-30T18:56:28.711Z,18.55
2022-10-30T18:59:01.556Z,8.10
2022-10-30T19:01:31.403Z,6.70
2022-10-30T19:04:01.062Z,6.03
2022-10-30T19:06:28.493Z,6.72
2022-10-30T19:08:55.355Z,6.88
2022-10-30T19:11:24.879Z,6.78
2022-10-30T19:13:53.628Z,10.38
2022-10-30T19:16:21.122Z,8.98
2022-10-30T19:18:48.421Z,6.53
2022-10-30T19:21:17.659Z,7.40
2022-10-30T19:23:44.399Z,7.10
2022-10-30T19:26:13.106Z,6.65
2022-10-30T19:28:40.779Z,7.57
2022-10-30T19:31:08.292Z,6.68
2022-10-30T19:33:34.952Z,7.78
2022-10-30T19:36:07.254Z,6.82
2022-10-30T19:38:34.123Z,7.32
2022-10-30T19:41:01.114Z,6.50
2022-10-30T19:43:27.818Z,7.25
2022-10-30T19:45:56.797Z,7.65
2022-10-30T19:48:47.803Z,8.80
2022-10-30T19:51:11.561Z,9.32
2022-10-30T19:53:39.042Z,7.22
2022-10-30T19:56:06.200Z,6.55
2022-10-30T19:58:32.944Z,8.32
2022-10-30T20:00:59.688Z,6.70
2022-10-30T20:03:26.449Z,7.25
2022-10-30T20:05:55.604Z,6.05
2022-10-30T20:08:25.593Z,5.47
2022-10-30T20:10:54.414Z,6.25
2022-10-30T20:13:23.296Z,6.73
2022-10-30T20:15:50.789Z,7.60
2022-10-30T20:18:20.219Z,6.72
2022-10-30T20:20:49.931Z,6.60
2022-10-30T20:25:44.777Z,7.47
2022-10-30T20:28:17.416Z,7.68
2022-10-30T20:30:44.099Z,8.45
2022-10-30T20:33:12.991Z,9.07
2022-10-30T20:35:39.751Z,8.07
2022-10-30T20:38:06.589Z,8.25
2022-10-30T20:40:34.148Z,8.18
2022-10-30T20:43:02.992Z,9.38
2022-10-30T20:45:30.046Z,8.75
2022-10-30T20:47:56.967Z,8.52
2022-10-30T20:50:23.939Z,8.88
2022-10-30T20:52:50.645Z,8.30
2022-10-30T20:55:17.347Z,8.55
2022-10-30T20:57:44.088Z,8.82
2022-10-30T21:00:12.428Z,8.98
2022-10-30T21:02:39.211Z,8.15
2022-10-30T21:05:11.815Z,8.88
2022-10-30T21:07:44.151Z,7.45
2022-10-30T21:10:10.808Z,8.27
2022-10-30T21:12:37.440Z,7.78
2022-10-30T21:15:05.296Z,8.48
2022-10-30T21:17:32.526Z,8.02
2022-10-30T21:19:59.175Z,8.07
2022-10-30T21:22:25.858Z,7.68
2022-10-30T21:24:52.501Z,7.90
2022-10-30T21:27:19.111Z,7.82
2022-10-30T21:29:46.239Z,7.55
2022-10-30T21:32:13.787Z,7.20
2022-10-30T21:34:40.464Z,7.28
2022-10-30T21:37:07.120Z,7.50
2022-10-30T21:39:33.813Z,7.07
2022-10-30T21:42:00.438Z,7.40
2022-10-30T21:44:28.092Z,7.30
2022-10-30T21:46:54.786Z,6.93
2022-10-30T21:49:21.589Z,7.60
2022-10-30T21:51:50.457Z,7.15
2022-10-30T21:54:20.135Z,7.22
2022-10-30T21:59:13.502Z,6.25
2022-10-30T22:01:41.280Z,7.22
2022-10-30T22:04:10.328Z,6.60
2022-10-30T22:06:42.340Z,6.32
2022-10-30T22:09:09.933Z,6.68
2022-10-30T22:11:37.187Z,6.88
2022-10-30T22:14:05.248Z,5.13
2022-10-30T22:16:34.432Z,5.40
2022-10-30T22:19:01.710Z,5.82
2022-10-30T22:21:29.661Z,6.25
2022-10-30T22:23:58.384Z,6.60
2022-10-30T22:26:25.111Z,6.00
2022-10-30T22:28:54.016Z,6.28
2022-10-30T22:31:21.861Z,5.03
2022-10-30T22:33:49.072Z,5.43
2022-10-30T22:36:17.357Z,5.80
2022-10-30T22:38:45.179Z,5.40
2022-10-30T22:41:13.267Z,5.53
2022-10-30T22:43:41.358Z,6.25
2022-10-30T22:46:09.208Z,6.15
2022-10-30T22:48:36.122Z,7.18
2022-10-30T22:51:05.295Z,7.00
2022-10-30T22:53:33.161Z,6.93
2022-10-30T22:56:00.727Z,7.25
2022-10-30T22:58:29.455Z,7.28
2022-10-30T23:01:13.283Z,7.75
2022-10-30T23:03:40.306Z,7.70
2022-10-30T23:06:07.277Z,7.88
2022-10-30T23:08:34.330Z,7.47
2022-10-30T23:11:01.739Z,7.85
2022-10-30T23:13:28.857Z,7.43
2022-10-30T23:16:01.438Z,7.82
2022-10-30T23:18:28.624Z,7.22
2022-10-30T23:21:00.902Z,7.22
2022-10-30T23:23:27.874Z,7.43
2022-10-30T23:25:54.624Z,8.25
2022-10-30T23:28:21.786Z,6.80
2022-10-30T23:30:48.436Z,7.53
2022-10-30T23:33:16.079Z,6.80
2022-10-30T23:35:42.750Z,6.47
2022-10-30T23:38:09.374Z,7.50
2022-10-30T23:40:36.040Z,7.57
2022-10-30T23:43:03.166Z,6.72
2022-10-30T23:45:31.866Z,8.88
2022-10-30T23:47:58.839Z,7.28
2022-10-30T23:50:25.663Z,8.63
2022-10-30T23:52:52.276Z,7.45
2022-10-30T23:55:18.948Z,7.63
2022-10-30T23:57:47.933Z,8.20
